Terminal Aerodrome Forecast
Issued by NWS

Home | Current Version | Previous Version | Text Only | Print | Product List | Glossary On
Versions: 1 2 3 4 5 6 7 8 9 10 11 12 13 14 15 16 17 18 19
000
FTUS46 KSGX 291135
TAFONT
TAF
KONT 291135Z 2912/3018 VRB05KT 6SM HZ OVC018
     FM291800 24005KT 6SM HZ SCT025 SCT250
     FM292200 25012G18KT P6SM SCT250
     FM300300 25010KT P6SM SCT025 SCT250
     FM300600 VRB05KT P6SM SCT025 SCT250
     FM300900 26005KT P6SM OVC015=

USA.gov is the U.S. government's official web portal to all federal, state and local government web resources and services.